sensor_id;sensor_type;location;lat;lon;timestamp;temperature;humidity
39347;DHT22;26262;49.836;6.632;2023-06-19T00:00:56;18.20;99.90
39347;DHT22;26262;49.836;6.632;2023-06-19T00:03:21;18.30;99.90
39347;DHT22;26262;49.836;6.632;2023-06-19T00:05:47;18.30;99.90
39347;DHT22;26262;49.836;6.632;2023-06-19T00:08:13;18.00;99.90
39347;DHT22;26262;49.836;6.632;2023-06-19T00:10:38;18.00;99.90
39347;DHT22;26262;49.836;6.632;2023-06-19T00:13:04;17.90;99.90
39347;DHT22;26262;49.836;6.632;2023-06-19T00:15:29;17.90;99.90
39347;DHT22;26262;49.836;6.632;2023-06-19T00:17:56;17.80;99.90
39347;DHT22;26262;49.836;6.632;2023-06-19T00:20:23;17.80;99.90
39347;DHT22;26262;49.836;6.632;2023-06-19T00:22:48;17.80;99.90
39347;DHT22;26262;49.836;6.632;2023-06-19T00:25:18;17.80;99.90
39347;DHT22;26262;49.836;6.632;2023-06-19T00:27:44;17.80;99.90
39347;DHT22;26262;49.836;6.632;2023-06-19T00:30:10;17.90;99.90
39347;DHT22;26262;49.836;6.632;2023-06-19T00:32:37;18.00;99.90
39347;DHT22;26262;49.836;6.632;2023-06-19T00:35:13;18.10;99.90
39347;DHT22;26262;49.836;6.632;2023-06-19T00:37:39;17.80;99.90
39347;DHT22;26262;49.836;6.632;2023-06-19T00:40:07;17.90;99.90
39347;DHT22;26262;49.836;6.632;2023-06-19T00:42:33;17.80;99.90
39347;DHT22;26262;49.836;6.632;2023-06-19T00:44:59;18.00;99.90
39347;DHT22;26262;49.836;6.632;2023-06-19T00:47:25;18.20;99.90
39347;DHT22;26262;49.836;6.632;2023-06-19T00:49:51;18.20;99.90
39347;DHT22;26262;49.836;6.632;2023-06-19T00:52:17;18.10;99.90
39347;DHT22;26262;49.836;6.632;2023-06-19T00:54:43;18.00;99.90
39347;DHT22;26262;49.836;6.632;2023-06-19T00:57:09;17.90;99.90
39347;DHT22;26262;49.836;6.632;2023-06-19T00:59:35;18.00;99.90
39347;DHT22;26262;49.836;6.632;2023-06-19T01:02:01;18.10;99.90
39347;DHT22;26262;49.836;6.632;2023-06-19T01:04:27;18.00;99.90
39347;DHT22;26262;49.836;6.632;2023-06-19T01:07:00;18.00;99.90
39347;DHT22;26262;49.836;6.632;2023-06-19T01:09:33;18.10;99.90
39347;DHT22;26262;49.836;6.632;2023-06-19T01:12:10;17.80;99.90
39347;DHT22;26262;49.836;6.632;2023-06-19T01:14:59;17.60;99.90
39347;DHT22;26262;49.836;6.632;2023-06-19T01:17:26;17.70;99.90
39347;DHT22;26262;49.836;6.632;2023-06-19T01:19:53;17.50;99.90
39347;DHT22;26262;49.836;6.632;2023-06-19T01:22:31;17.70;99.90
39347;DHT22;26262;49.836;6.632;2023-06-19T01:24:57;17.60;99.90
39347;DHT22;26262;49.836;6.632;2023-06-19T01:27:24;17.70;99.90
39347;DHT22;26262;49.836;6.632;2023-06-19T01:29:57;17.40;99.90
39347;DHT22;26262;49.836;6.632;2023-06-19T01:32:34;17.20;99.90
39347;DHT22;26262;49.836;6.632;2023-06-19T01:35:02;17.10;99.90
39347;DHT22;26262;49.836;6.632;2023-06-19T01:37:29;17.30;99.90
39347;DHT22;26262;49.836;6.632;2023-06-19T01:39:59;17.40;99.90
39347;DHT22;26262;49.836;6.632;2023-06-19T01:42:26;17.40;99.90
39347;DHT22;26262;49.836;6.632;2023-06-19T01:44:53;17.40;99.90
39347;DHT22;26262;49.836;6.632;2023-06-19T01:47:18;17.40;99.90
39347;DHT22;26262;49.836;6.632;2023-06-19T01:49:48;17.40;99.90
39347;DHT22;26262;49.836;6.632;2023-06-19T01:52:14;17.10;99.90
39347;DHT22;26262;49.836;6.632;2023-06-19T01:54:40;17.20;99.90
39347;DHT22;26262;49.836;6.632;2023-06-19T01:57:06;17.30;99.90
39347;DHT22;26262;49.836;6.632;2023-06-19T01:59:32;17.30;99.90
39347;DHT22;26262;49.836;6.632;2023-06-19T02:01:57;17.10;99.90
39347;DHT22;26262;49.836;6.632;2023-06-19T02:04:23;16.90;99.90
39347;DHT22;26262;49.836;6.632;2023-06-19T02:06:48;17.00;99.90
39347;DHT22;26262;49.836;6.632;2023-06-19T02:09:14;17.00;99.90
39347;DHT22;26262;49.836;6.632;2023-06-19T02:11:39;16.90;99.90
39347;DHT22;26262;49.836;6.632;2023-06-19T02:14:05;17.00;99.90
39347;DHT22;26262;49.836;6.632;2023-06-19T02:16:30;17.10;99.90
39347;DHT22;26262;49.836;6.632;2023-06-19T02:18:56;16.90;99.90
39347;DHT22;26262;49.836;6.632;2023-06-19T02:21:22;16.80;99.90
39347;DHT22;26262;49.836;6.632;2023-06-19T02:23:47;16.70;99.90
39347;DHT22;26262;49.836;6.632;2023-06-19T02:26:13;16.80;99.90
39347;DHT22;26262;49.836;6.632;2023-06-19T02:28:39;16.80;99.90
39347;DHT22;26262;49.836;6.632;2023-06-19T02:31:04;16.80;99.90
39347;DHT22;26262;49.836;6.632;2023-06-19T02:33:30;16.60;99.90
39347;DHT22;26262;49.836;6.632;2023-06-19T02:35:55;16.60;99.90
39347;DHT22;26262;49.836;6.632;2023-06-19T02:38:25;16.50;99.90
39347;DHT22;26262;49.836;6.632;2023-06-19T02:40:50;16.50;99.90
39347;DHT22;26262;49.836;6.632;2023-06-19T02:43:16;16.50;99.90
39347;DHT22;26262;49.836;6.632;2023-06-19T02:45:41;16.50;99.90
39347;DHT22;26262;49.836;6.632;2023-06-19T02:48:07;16.50;99.90
39347;DHT22;26262;49.836;6.632;2023-06-19T02:50:33;16.60;99.90
39347;DHT22;26262;49.836;6.632;2023-06-19T02:52:58;16.40;99.90
39347;DHT22;26262;49.836;6.632;2023-06-19T02:55:24;16.50;99.90
39347;DHT22;26262;49.836;6.632;2023-06-19T02:57:49;16.30;99.90
39347;DHT22;26262;49.836;6.632;2023-06-19T03:00:15;16.40;99.90
39347;DHT22;26262;49.836;6.632;2023-06-19T03:02:40;16.30;99.90
39347;DHT22;26262;49.836;6.632;2023-06-19T03:05:08;16.40;99.90
39347;DHT22;26262;49.836;6.632;2023-06-19T03:07:35;16.20;99.90
39347;DHT22;26262;49.836;6.632;2023-06-19T03:10:00;16.30;99.90
39347;DHT22;26262;49.836;6.632;2023-06-19T03:12:26;16.40;99.90
39347;DHT22;26262;49.836;6.632;2023-06-19T03:14:51;16.20;99.90
39347;DHT22;26262;49.836;6.632;2023-06-19T03:17:17;16.20;99.90
39347;DHT22;26262;49.836;6.632;2023-06-19T03:19:42;16.40;99.90
39347;DHT22;26262;49.836;6.632;2023-06-19T03:22:08;16.20;99.90
39347;DHT22;26262;49.836;6.632;2023-06-19T03:24:33;16.30;99.90
39347;DHT22;26262;49.836;6.632;2023-06-19T03:26:59;16.20;99.90
39347;DHT22;26262;49.836;6.632;2023-06-19T03:29:24;16.30;99.90
39347;DHT22;26262;49.836;6.632;2023-06-19T03:31:50;16.30;99.90
39347;DHT22;26262;49.836;6.632;2023-06-19T03:34:16;16.20;99.90
39347;DHT22;26262;49.836;6.632;2023-06-19T03:36:41;16.20;99.90
39347;DHT22;26262;49.836;6.632;2023-06-19T03:39:07;16.20;99.90
39347;DHT22;26262;49.836;6.632;2023-06-19T03:41:32;16.30;99.90
39347;DHT22;26262;49.836;6.632;2023-06-19T03:43:58;16.20;99.90
39347;DHT22;26262;49.836;6.632;2023-06-19T03:46:23;16.30;99.90
39347;DHT22;26262;49.836;6.632;2023-06-19T03:48:49;16.20;99.90
39347;DHT22;26262;49.836;6.632;2023-06-19T03:51:14;16.40;99.90
39347;DHT22;26262;49.836;6.632;2023-06-19T03:53:40;16.40;99.90
39347;DHT22;26262;49.836;6.632;2023-06-19T03:56:07;16.40;99.90
39347;DHT22;26262;49.836;6.632;2023-06-19T03:58:32;16.40;99.90
39347;DHT22;26262;49.836;6.632;2023-06-19T04:00:58;16.30;99.90
39347;DHT22;26262;49.836;6.632;2023-06-19T04:03:23;16.20;99.90
39347;DHT22;26262;49.836;6.632;2023-06-19T04:05:49;16.40;99.90
39347;DHT22;26262;49.836;6.632;2023-06-19T04:08:15;16.30;99.90
39347;DHT22;26262;49.836;6.632;2023-06-19T04:10:41;16.50;99.90
39347;DHT22;26262;49.836;6.632;2023-06-19T04:13:06;16.60;99.90
39347;DHT22;26262;49.836;6.632;2023-06-19T04:15:32;16.60;99.90
39347;DHT22;26262;49.836;6.632;2023-06-19T04:17:58;16.70;99.90
39347;DHT22;26262;49.836;6.632;2023-06-19T04:20:26;16.70;99.90
39347;DHT22;26262;49.836;6.632;2023-06-19T04:22:52;16.80;99.90
39347;DHT22;26262;49.836;6.632;2023-06-19T04:25:17;16.80;99.90
39347;DHT22;26262;49.836;6.632;2023-06-19T04:27:43;17.00;99.90
39347;DHT22;26262;49.836;6.632;2023-06-19T04:30:10;16.90;99.90
39347;DHT22;26262;49.836;6.632;2023-06-19T04:32:36;17.00;99.90
39347;DHT22;26262;49.836;6.632;2023-06-19T04:35:02;16.90;99.90
39347;DHT22;26262;49.836;6.632;2023-06-19T04:37:28;16.90;99.90
39347;DHT22;26262;49.836;6.632;2023-06-19T04:39:54;16.80;99.90
39347;DHT22;26262;49.836;6.632;2023-06-19T04:42:19;16.90;99.90
39347;DHT22;26262;49.836;6.632;2023-06-19T04:44:49;16.80;99.90
39347;DHT22;26262;49.836;6.632;2023-06-19T04:47:17;16.80;99.90
39347;DHT22;26262;49.836;6.632;2023-06-19T04:49:43;16.80;99.90
39347;DHT22;26262;49.836;6.632;2023-06-19T04:52:09;16.90;99.90
39347;DHT22;26262;49.836;6.632;2023-06-19T04:54:34;16.90;99.90
39347;DHT22;26262;49.836;6.632;2023-06-19T04:57:00;17.00;99.90
39347;DHT22;26262;49.836;6.632;2023-06-19T04:59:26;17.00;99.90
39347;DHT22;26262;49.836;6.632;2023-06-19T05:01:52;17.10;99.90
39347;DHT22;26262;49.836;6.632;2023-06-19T05:04:20;17.10;99.90
39347;DHT22;26262;49.836;6.632;2023-06-19T05:06:45;17.20;99.90
39347;DHT22;26262;49.836;6.632;2023-06-19T05:09:11;17.30;99.90
39347;DHT22;26262;49.836;6.632;2023-06-19T05:11:37;17.30;99.90
39347;DHT22;26262;49.836;6.632;2023-06-19T05:14:02;17.20;99.90
39347;DHT22;26262;49.836;6.632;2023-06-19T05:16:28;17.30;99.90
39347;DHT22;26262;49.836;6.632;2023-06-19T05:18:54;17.40;99.90
39347;DHT22;26262;49.836;6.632;2023-06-19T05:21:19;17.50;99.90
39347;DHT22;26262;49.836;6.632;2023-06-19T05:23:45;17.60;99.90
39347;DHT22;26262;49.836;6.632;2023-06-19T05:26:21;17.70;99.90
39347;DHT22;26262;49.836;6.632;2023-06-19T05:28:48;17.70;99.90
39347;DHT22;26262;49.836;6.632;2023-06-19T05:31:14;17.80;99.90
39347;DHT22;26262;49.836;6.632;2023-06-19T05:33:43;18.00;99.90
39347;DHT22;26262;49.836;6.632;2023-06-19T05:36:08;18.10;99.90
39347;DHT22;26262;49.836;6.632;2023-06-19T05:38:34;18.20;99.90
39347;DHT22;26262;49.836;6.632;2023-06-19T05:40:59;18.30;99.90
39347;DHT22;26262;49.836;6.632;2023-06-19T05:43:25;18.50;99.90
39347;DHT22;26262;49.836;6.632;2023-06-19T05:45:52;18.60;99.90
39347;DHT22;26262;49.836;6.632;2023-06-19T05:48:18;18.80;99.90
39347;DHT22;26262;49.836;6.632;2023-06-19T05:50:43;18.90;99.90
39347;DHT22;26262;49.836;6.632;2023-06-19T05:53:09;19.00;99.90
39347;DHT22;26262;49.836;6.632;2023-06-19T05:55:34;19.00;99.90
39347;DHT22;26262;49.836;6.632;2023-06-19T05:58:00;19.10;99.90
39347;DHT22;26262;49.836;6.632;2023-06-19T06:00:26;19.20;99.90
39347;DHT22;26262;49.836;6.632;2023-06-19T06:02:52;19.30;99.90
39347;DHT22;26262;49.836;6.632;2023-06-19T06:05:18;19.20;99.90
39347;DHT22;26262;49.836;6.632;2023-06-19T06:07:45;19.20;99.90
39347;DHT22;26262;49.836;6.632;2023-06-19T06:10:11;19.20;99.90
39347;DHT22;26262;49.836;6.632;2023-06-19T06:12:37;19.30;99.90
39347;DHT22;26262;49.836;6.632;2023-06-19T06:15:04;19.30;99.90
39347;DHT22;26262;49.836;6.632;2023-06-19T06:17:30;19.50;99.90
39347;DHT22;26262;49.836;6.632;2023-06-19T06:19:55;19.50;99.90
39347;DHT22;26262;49.836;6.632;2023-06-19T06:22:21;19.50;99.90
39347;DHT22;26262;49.836;6.632;2023-06-19T06:24:46;19.50;99.90
39347;DHT22;26262;49.836;6.632;2023-06-19T06:27:12;19.60;99.90
39347;DHT22;26262;49.836;6.632;2023-06-19T06:29:38;19.70;99.90
39347;DHT22;26262;49.836;6.632;2023-06-19T06:32:05;19.60;99.90
39347;DHT22;26262;49.836;6.632;2023-06-19T06:34:32;19.80;99.90
39347;DHT22;26262;49.836;6.632;2023-06-19T06:36:58;19.80;99.90
39347;DHT22;26262;49.836;6.632;2023-06-19T06:39:24;20.00;99.90
39347;DHT22;26262;49.836;6.632;2023-06-19T06:41:49;20.00;99.90
39347;DHT22;26262;49.836;6.632;2023-06-19T06:44:15;20.10;99.90
39347;DHT22;26262;49.836;6.632;2023-06-19T06:46:40;20.20;99.90
39347;DHT22;26262;49.836;6.632;2023-06-19T06:49:06;20.20;99.90
39347;DHT22;26262;49.836;6.632;2023-06-19T06:51:32;20.20;99.90
39347;DHT22;26262;49.836;6.632;2023-06-19T06:53:57;20.40;99.90
39347;DHT22;26262;49.836;6.632;2023-06-19T06:56:23;20.50;99.90
39347;DHT22;26262;49.836;6.632;2023-06-19T06:58:48;20.70;99.90
39347;DHT22;26262;49.836;6.632;2023-06-19T07:01:14;20.70;99.90
39347;DHT22;26262;49.836;6.632;2023-06-19T07:03:39;20.90;99.90
39347;DHT22;26262;49.836;6.632;2023-06-19T07:06:05;20.90;99.90
39347;DHT22;26262;49.836;6.632;2023-06-19T07:08:31;20.80;99.90
39347;DHT22;26262;49.836;6.632;2023-06-19T07:10:56;20.80;99.90
39347;DHT22;26262;49.836;6.632;2023-06-19T07:13:22;20.80;99.90
39347;DHT22;26262;49.836;6.632;2023-06-19T07:15:48;20.80;99.90
39347;DHT22;26262;49.836;6.632;2023-06-19T07:18:13;20.90;99.90
39347;DHT22;26262;49.836;6.632;2023-06-19T07:20:39;21.00;99.90
39347;DHT22;26262;49.836;6.632;2023-06-19T07:23:04;21.10;99.90
39347;DHT22;26262;49.836;6.632;2023-06-19T07:25:30;21.20;99.90
39347;DHT22;26262;49.836;6.632;2023-06-19T07:27:59;21.30;99.90
39347;DHT22;26262;49.836;6.632;2023-06-19T07:30:24;21.30;99.90
39347;DHT22;26262;49.836;6.632;2023-06-19T07:32:50;21.20;99.90
39347;DHT22;26262;49.836;6.632;2023-06-19T07:35:15;21.20;99.90
39347;DHT22;26262;49.836;6.632;2023-06-19T07:37:41;21.30;99.90
39347;DHT22;26262;49.836;6.632;2023-06-19T07:40:07;21.40;99.90
39347;DHT22;26262;49.836;6.632;2023-06-19T07:42:33;21.40;99.90
39347;DHT22;26262;49.836;6.632;2023-06-19T07:44:58;21.50;99.90
39347;DHT22;26262;49.836;6.632;2023-06-19T07:47:25;21.50;99.90
39347;DHT22;26262;49.836;6.632;2023-06-19T07:49:51;21.60;99.90
39347;DHT22;26262;49.836;6.632;2023-06-19T07:52:17;21.70;99.90
39347;DHT22;26262;49.836;6.632;2023-06-19T07:54:53;21.80;99.90
39347;DHT22;26262;49.836;6.632;2023-06-19T07:57:19;22.00;99.90
39347;DHT22;26262;49.836;6.632;2023-06-19T07:59:45;21.90;99.90
39347;DHT22;26262;49.836;6.632;2023-06-19T08:02:11;21.70;99.90
39347;DHT22;26262;49.836;6.632;2023-06-19T08:04:36;21.60;99.90
39347;DHT22;26262;49.836;6.632;2023-06-19T08:07:02;21.70;99.90
39347;DHT22;26262;49.836;6.632;2023-06-19T08:09:27;22.00;99.90
39347;DHT22;26262;49.836;6.632;2023-06-19T08:11:53;22.20;99.90
39347;DHT22;26262;49.836;6.632;2023-06-19T08:14:18;22.00;99.90
39347;DHT22;26262;49.836;6.632;2023-06-19T08:16:44;21.90;99.90
39347;DHT22;26262;49.836;6.632;2023-06-19T08:19:10;21.90;99.90
39347;DHT22;26262;49.836;6.632;2023-06-19T08:21:35;21.70;99.90
39347;DHT22;26262;49.836;6.632;2023-06-19T08:24:01;21.90;99.90
39347;DHT22;26262;49.836;6.632;2023-06-19T08:26:27;21.80;99.90
39347;DHT22;26262;49.836;6.632;2023-06-19T08:28:52;22.00;99.90
39347;DHT22;26262;49.836;6.632;2023-06-19T08:31:18;22.10;99.90
39347;DHT22;26262;49.836;6.632;2023-06-19T08:33:43;22.10;99.90
39347;DHT22;26262;49.836;6.632;2023-06-19T08:36:10;22.20;99.90
39347;DHT22;26262;49.836;6.632;2023-06-19T08:38:35;22.20;99.90
39347;DHT22;26262;49.836;6.632;2023-06-19T08:41:01;22.30;99.90
39347;DHT22;26262;49.836;6.632;2023-06-19T08:43:27;22.50;99.90
39347;DHT22;26262;49.836;6.632;2023-06-19T08:46:11;22.70;99.90
39347;DHT22;26262;49.836;6.632;2023-06-19T08:48:37;22.90;99.90
39347;DHT22;26262;49.836;6.632;2023-06-19T08:51:04;22.90;99.90
39347;DHT22;26262;49.836;6.632;2023-06-19T08:53:33;23.00;99.90
39347;DHT22;26262;49.836;6.632;2023-06-19T08:55:59;23.20;99.90
39347;DHT22;26262;49.836;6.632;2023-06-19T08:58:25;23.40;99.90
39347;DHT22;26262;49.836;6.632;2023-06-19T09:00:51;23.10;99.90
39347;DHT22;26262;49.836;6.632;2023-06-19T09:03:20;22.50;99.90
39347;DHT22;26262;49.836;6.632;2023-06-19T09:05:50;22.40;99.90
39347;DHT22;26262;49.836;6.632;2023-06-19T09:08:16;22.40;99.90
39347;DHT22;26262;49.836;6.632;2023-06-19T09:10:43;22.50;99.90
39347;DHT22;26262;49.836;6.632;2023-06-19T09:13:08;22.80;99.90
39347;DHT22;26262;49.836;6.632;2023-06-19T09:15:35;23.00;99.90
39347;DHT22;26262;49.836;6.632;2023-06-19T09:18:06;23.00;99.90
39347;DHT22;26262;49.836;6.632;2023-06-19T09:20:35;23.10;99.90
39347;DHT22;26262;49.836;6.632;2023-06-19T09:23:01;23.30;99.90
39347;DHT22;26262;49.836;6.632;2023-06-19T09:25:27;23.50;99.90
39347;DHT22;26262;49.836;6.632;2023-06-19T09:27:55;23.80;99.90
39347;DHT22;26262;49.836;6.632;2023-06-19T09:30:21;23.70;99.90
39347;DHT22;26262;49.836;6.632;2023-06-19T09:32:47;23.40;99.90
39347;DHT22;26262;49.836;6.632;2023-06-19T09:35:13;23.00;99.90
39347;DHT22;26262;49.836;6.632;2023-06-19T09:37:39;23.10;99.90
39347;DHT22;26262;49.836;6.632;2023-06-19T09:40:08;23.40;99.90
39347;DHT22;26262;49.836;6.632;2023-06-19T09:42:40;23.70;99.90
39347;DHT22;26262;49.836;6.632;2023-06-19T09:45:07;23.90;99.90
39347;DHT22;26262;49.836;6.632;2023-06-19T09:49:59;24.10;99.90
39347;DHT22;26262;49.836;6.632;2023-06-19T09:52:26;24.30;99.90
39347;DHT22;26262;49.836;6.632;2023-06-19T09:54:54;24.50;99.90
39347;DHT22;26262;49.836;6.632;2023-06-19T09:57:20;24.60;99.90
39347;DHT22;26262;49.836;6.632;2023-06-19T09:59:48;24.60;99.90
39347;DHT22;26262;49.836;6.632;2023-06-19T10:02:16;24.50;99.90
39347;DHT22;26262;49.836;6.632;2023-06-19T10:04:48;24.50;99.90
39347;DHT22;26262;49.836;6.632;2023-06-19T10:07:19;24.40;99.90
39347;DHT22;26262;49.836;6.632;2023-06-19T10:12:40;24.60;99.90
39347;DHT22;26262;49.836;6.632;2023-06-19T10:18:03;25.20;99.90
39347;DHT22;26262;49.836;6.632;2023-06-19T10:20:36;25.30;99.90
39347;DHT22;26262;49.836;6.632;2023-06-19T10:25:31;26.00;99.90
39347;DHT22;26262;49.836;6.632;2023-06-19T10:27:58;26.20;99.90
39347;DHT22;26262;49.836;6.632;2023-06-19T10:30:23;26.00;99.90
39347;DHT22;26262;49.836;6.632;2023-06-19T10:32:49;26.00;99.90
39347;DHT22;26262;49.836;6.632;2023-06-19T10:35:16;26.30;99.10
39347;DHT22;26262;49.836;6.632;2023-06-19T10:37:43;26.50;98.40
39347;DHT22;26262;49.836;6.632;2023-06-19T10:40:11;26.70;98.30
39347;DHT22;26262;49.836;6.632;2023-06-19T10:42:38;26.80;96.40
39347;DHT22;26262;49.836;6.632;2023-06-19T10:45:05;27.40;97.40
39347;DHT22;26262;49.836;6.632;2023-06-19T10:47:35;27.90;95.80
39347;DHT22;26262;49.836;6.632;2023-06-19T10:50:00;28.20;95.40
39347;DHT22;26262;49.836;6.632;2023-06-19T10:52:28;28.30;95.30
39347;DHT22;26262;49.836;6.632;2023-06-19T10:54:55;28.50;95.70
39347;DHT22;26262;49.836;6.632;2023-06-19T10:57:30;28.30;95.00
39347;DHT22;26262;49.836;6.632;2023-06-19T10:59:56;28.40;94.20
39347;DHT22;26262;49.836;6.632;2023-06-19T11:02:22;28.50;94.50
39347;DHT22;26262;49.836;6.632;2023-06-19T11:04:48;28.50;94.50
39347;DHT22;26262;49.836;6.632;2023-06-19T11:07:14;27.80;94.30
39347;DHT22;26262;49.836;6.632;2023-06-19T11:09:39;27.70;95.20
39347;DHT22;26262;49.836;6.632;2023-06-19T11:12:05;27.10;93.70
39347;DHT22;26262;49.836;6.632;2023-06-19T11:14:34;26.70;94.40
39347;DHT22;26262;49.836;6.632;2023-06-19T11:17:06;26.50;95.10
39347;DHT22;26262;49.836;6.632;2023-06-19T11:19:32;27.10;95.20
39347;DHT22;26262;49.836;6.632;2023-06-19T11:22:00;27.40;95.00
39347;DHT22;26262;49.836;6.632;2023-06-19T11:24:29;27.50;95.20
39347;DHT22;26262;49.836;6.632;2023-06-19T11:26:56;27.60;95.40
39347;DHT22;26262;49.836;6.632;2023-06-19T11:29:26;27.60;94.00
39347;DHT22;26262;49.836;6.632;2023-06-19T11:31:54;27.30;94.90
39347;DHT22;26262;49.836;6.632;2023-06-19T11:34:34;27.50;93.90
39347;DHT22;26262;49.836;6.632;2023-06-19T11:37:11;27.50;93.70
39347;DHT22;26262;49.836;6.632;2023-06-19T11:39:37;27.30;94.10
39347;DHT22;26262;49.836;6.632;2023-06-19T11:42:03;27.60;94.80
39347;DHT22;26262;49.836;6.632;2023-06-19T11:44:28;27.30;93.10
39347;DHT22;26262;49.836;6.632;2023-06-19T11:46:57;28.10;94.20
39347;DHT22;26262;49.836;6.632;2023-06-19T11:49:24;28.60;93.40
39347;DHT22;26262;49.836;6.632;2023-06-19T11:51:50;29.20;92.00
39347;DHT22;26262;49.836;6.632;2023-06-19T11:54:16;28.70;92.50
39347;DHT22;26262;49.836;6.632;2023-06-19T11:56:43;28.70;91.70
39347;DHT22;26262;49.836;6.632;2023-06-19T11:59:09;29.30;91.50
39347;DHT22;26262;49.836;6.632;2023-06-19T12:01:35;29.50;91.60
39347;DHT22;26262;49.836;6.632;2023-06-19T12:04:02;29.90;91.20
39347;DHT22;26262;49.836;6.632;2023-06-19T12:06:29;30.10;90.40
39347;DHT22;26262;49.836;6.632;2023-06-19T12:08:54;28.90;90.60
39347;DHT22;26262;49.836;6.632;2023-06-19T12:11:20;28.70;90.40
39347;DHT22;26262;49.836;6.632;2023-06-19T12:13:46;28.10;91.30
39347;DHT22;26262;49.836;6.632;2023-06-19T12:16:11;27.40;91.40
39347;DHT22;26262;49.836;6.632;2023-06-19T12:18:37;26.80;91.80
39347;DHT22;26262;49.836;6.632;2023-06-19T12:21:03;26.70;91.90
39347;DHT22;26262;49.836;6.632;2023-06-19T12:23:29;26.30;93.30
39347;DHT22;26262;49.836;6.632;2023-06-19T12:25:55;26.40;93.70
39347;DHT22;26262;49.836;6.632;2023-06-19T12:28:21;26.80;92.60
39347;DHT22;26262;49.836;6.632;2023-06-19T12:30:47;27.00;92.90
39347;DHT22;26262;49.836;6.632;2023-06-19T12:33:18;26.20;92.70
39347;DHT22;26262;49.836;6.632;2023-06-19T12:35:44;26.00;92.70
39347;DHT22;26262;49.836;6.632;2023-06-19T12:38:10;26.10;93.80
39347;DHT22;26262;49.836;6.632;2023-06-19T12:40:36;26.20;92.90
39347;DHT22;26262;49.836;6.632;2023-06-19T12:43:02;26.30;92.40
39347;DHT22;26262;49.836;6.632;2023-06-19T12:45:28;26.60;92.50
39347;DHT22;26262;49.836;6.632;2023-06-19T12:47:53;27.00;92.50
39347;DHT22;26262;49.836;6.632;2023-06-19T12:50:19;27.30;93.20
39347;DHT22;26262;49.836;6.632;2023-06-19T12:52:45;27.40;92.30
39347;DHT22;26262;49.836;6.632;2023-06-19T12:55:10;27.30;92.40
39347;DHT22;26262;49.836;6.632;2023-06-19T12:57:36;27.60;92.00
39347;DHT22;26262;49.836;6.632;2023-06-19T13:00:02;27.70;92.10
39347;DHT22;26262;49.836;6.632;2023-06-19T13:02:30;27.20;91.90
39347;DHT22;26262;49.836;6.632;2023-06-19T13:04:56;27.80;92.10
39347;DHT22;26262;49.836;6.632;2023-06-19T13:07:23;27.80;92.20
39347;DHT22;26262;49.836;6.632;2023-06-19T13:09:49;28.10;91.00
39347;DHT22;26262;49.836;6.632;2023-06-19T13:12:14;28.10;90.70
39347;DHT22;26262;49.836;6.632;2023-06-19T13:14:40;28.20;91.10
39347;DHT22;26262;49.836;6.632;2023-06-19T13:17:05;28.30;90.60
39347;DHT22;26262;49.836;6.632;2023-06-19T13:19:32;28.60;91.00
39347;DHT22;26262;49.836;6.632;2023-06-19T13:21:57;28.80;90.70
39347;DHT22;26262;49.836;6.632;2023-06-19T13:24:23;28.60;90.60
39347;DHT22;26262;49.836;6.632;2023-06-19T13:26:48;27.80;90.60
39347;DHT22;26262;49.836;6.632;2023-06-19T13:29:15;28.10;91.40
39347;DHT22;26262;49.836;6.632;2023-06-19T13:31:40;28.00;91.50
39347;DHT22;26262;49.836;6.632;2023-06-19T13:34:06;28.20;91.00
39347;DHT22;26262;49.836;6.632;2023-06-19T13:36:31;28.20;90.50
39347;DHT22;26262;49.836;6.632;2023-06-19T13:38:57;28.60;90.50
39347;DHT22;26262;49.836;6.632;2023-06-19T13:41:23;28.80;90.20
39347;DHT22;26262;49.836;6.632;2023-06-19T13:43:52;28.70;90.10
39347;DHT22;26262;49.836;6.632;2023-06-19T13:46:19;28.60;90.00
39347;DHT22;26262;49.836;6.632;2023-06-19T13:48:44;27.70;90.00
39347;DHT22;26262;49.836;6.632;2023-06-19T13:51:14;27.60;90.90
39347;DHT22;26262;49.836;6.632;2023-06-19T13:53:39;27.50;91.00
39347;DHT22;26262;49.836;6.632;2023-06-19T13:56:05;27.80;91.80
39347;DHT22;26262;49.836;6.632;2023-06-19T13:58:30;28.00;92.00
39347;DHT22;26262;49.836;6.632;2023-06-19T14:00:56;28.20;90.70
39347;DHT22;26262;49.836;6.632;2023-06-19T14:03:22;28.20;91.70
39347;DHT22;26262;49.836;6.632;2023-06-19T14:05:49;28.00;91.00
39347;DHT22;26262;49.836;6.632;2023-06-19T14:08:14;27.70;91.50
39347;DHT22;26262;49.836;6.632;2023-06-19T14:10:40;27.50;90.90
39347;DHT22;26262;49.836;6.632;2023-06-19T14:13:05;27.60;92.50
39347;DHT22;26262;49.836;6.632;2023-06-19T14:15:31;27.50;91.80
39347;DHT22;26262;49.836;6.632;2023-06-19T14:17:56;27.50;92.30
39347;DHT22;26262;49.836;6.632;2023-06-19T14:20:22;27.40;92.10
39347;DHT22;26262;49.836;6.632;2023-06-19T14:22:48;27.80;92.80
39347;DHT22;26262;49.836;6.632;2023-06-19T14:25:13;28.30;90.80
39347;DHT22;26262;49.836;6.632;2023-06-19T14:27:39;28.70;90.60
39347;DHT22;26262;49.836;6.632;2023-06-19T14:30:05;29.40;90.60
39347;DHT22;26262;49.836;6.632;2023-06-19T14:32:33;29.90;90.40
39347;DHT22;26262;49.836;6.632;2023-06-19T14:34:59;30.30;89.10
39347;DHT22;26262;49.836;6.632;2023-06-19T14:37:24;30.20;88.40
39347;DHT22;26262;49.836;6.632;2023-06-19T14:39:50;30.10;85.70
39347;DHT22;26262;49.836;6.632;2023-06-19T14:42:15;29.70;87.30
39347;DHT22;26262;49.836;6.632;2023-06-19T14:44:41;29.90;87.30
39347;DHT22;26262;49.836;6.632;2023-06-19T14:47:06;30.00;87.20
39347;DHT22;26262;49.836;6.632;2023-06-19T14:49:32;30.20;86.50
39347;DHT22;26262;49.836;6.632;2023-06-19T14:51:57;30.20;84.90
39347;DHT22;26262;49.836;6.632;2023-06-19T14:54:23;30.20;84.60
39347;DHT22;26262;49.836;6.632;2023-06-19T14:56:49;29.70;86.00
39347;DHT22;26262;49.836;6.632;2023-06-19T14:59:15;29.60;86.00
39347;DHT22;26262;49.836;6.632;2023-06-19T15:01:41;29.20;87.30
39347;DHT22;26262;49.836;6.632;2023-06-19T15:04:06;29.30;86.70
39347;DHT22;26262;49.836;6.632;2023-06-19T15:06:32;29.30;87.10
39347;DHT22;26262;49.836;6.632;2023-06-19T15:08:58;29.30;85.70
39347;DHT22;26262;49.836;6.632;2023-06-19T15:11:24;29.20;85.60
39347;DHT22;26262;49.836;6.632;2023-06-19T15:13:49;28.90;86.70
39347;DHT22;26262;49.836;6.632;2023-06-19T15:16:15;28.60;86.10
39347;DHT22;26262;49.836;6.632;2023-06-19T15:18:41;28.40;86.50
39347;DHT22;26262;49.836;6.632;2023-06-19T15:21:06;28.40;88.50
39347;DHT22;26262;49.836;6.632;2023-06-19T15:23:33;28.70;88.20
39347;DHT22;26262;49.836;6.632;2023-06-19T15:25:59;29.20;86.20
39347;DHT22;26262;49.836;6.632;2023-06-19T15:28:25;29.30;89.00
39347;DHT22;26262;49.836;6.632;2023-06-19T15:30:50;29.40;86.50
39347;DHT22;26262;49.836;6.632;2023-06-19T15:33:16;29.20;87.90
39347;DHT22;26262;49.836;6.632;2023-06-19T15:35:42;29.50;86.20